Time;durP1;ratioP1;P1;durP2;ratioP2;P2;SDS_P1;SDS_P2;PMS_P1;PMS_P2;Temp;Humidity;BMP_temperature;BMP_pressure;BME280_temperature;BME280_humidity;BME280_pressure;Samples;Min_cycle;Max_cycle;Signal;HPM_P1;HPM_P2
2021/07/28 00:01:21;;;;;;;42.65;18.15;;;;;;;19.31;86.10;94697.85;1694278;84;21065;-55
2021/07/28 00:03:48;;;;;;;41.18;20.32;;;;;;;19.24;86.39;94685.80;1695096;84;21152;-56
2021/07/28 00:06:22;;;;;;;53.65;19.25;;;;;;;19.22;86.73;94686.91;1694501;84;21472;-56
2021/07/28 00:08:50;;;;;;;45.70;18.85;;;;;;;19.24;86.58;94676.04;1694663;84;21013;-55
2021/07/28 00:11:18;;;;;;;49.38;19.37;;;;;;;19.25;86.68;94681.75;1695023;84;21509;-55
2021/07/28 00:13:46;;;;;;;43.05;17.87;;;;;;;19.25;86.55;94667.80;1695447;84;21147;-56
2021/07/28 00:16:14;;;;;;;34.00;17.62;;;;;;;19.26;86.62;94679.08;1695746;84;21160;-56
2021/07/28 00:18:51;;;;;;;39.83;17.92;;;;;;;19.32;86.60;94671.48;1694404;84;20961;-54
2021/07/28 00:23:56;;;;;;;35.48;16.15;;;;;;;19.31;86.28;94670.58;1695295;84;21135;-56
2021/07/28 00:26:23;;;;;;;43.40;19.48;;;;;;;19.20;86.34;94671.32;1695153;84;21569;-56
2021/07/28 00:28:49;;;;;;;43.83;19.15;;;;;;;19.11;86.66;94676.34;1694900;84;21110;-56
2021/07/28 00:31:16;;;;;;;35.55;17.15;;;;;;;19.09;86.74;94671.91;1693935;84;20997;-56
2021/07/28 00:33:43;;;;;;;43.33;15.93;;;;;;;19.07;86.87;94679.39;1694396;84;21057;-56
2021/07/28 00:36:09;;;;;;;40.00;16.87;;;;;;;19.04;87.19;94680.37;1694003;84;20986;-56
2021/07/28 00:38:36;;;;;;;38.20;16.62;;;;;;;18.99;87.58;94682.53;1695683;84;21005;-56
2021/07/28 00:41:03;;;;;;;32.88;14.95;;;;;;;18.96;87.58;94677.95;1695551;84;21148;-55
2021/07/28 00:43:31;;;;;;;32.05;15.88;;;;;;;18.95;87.66;94670.86;1693909;84;21107;-56
2021/07/28 00:45:57;;;;;;;38.65;17.32;;;;;;;18.95;87.74;94669.47;1689777;84;21497;-56
2021/07/28 00:48:24;;;;;;;31.93;16.82;;;;;;;18.94;87.79;94665.77;1693950;84;21199;-56
2021/07/28 00:50:50;;;;;;;34.03;16.87;;;;;;;18.91;87.81;94671.74;1694260;84;20950;-56
2021/07/28 00:53:18;;;;;;;37.30;16.73;;;;;;;18.91;87.89;94673.14;1695198;84;21155;-56
2021/07/28 00:55:47;;;;;;;39.85;17.30;;;;;;;18.94;88.05;94674.91;1694901;84;21057;-55
2021/07/28 00:58:15;;;;;;;32.30;17.05;;;;;;;18.98;87.65;94673.28;1694979;84;20997;-56
2021/07/28 01:00:42;;;;;;;39.35;16.10;;;;;;;18.94;87.33;94676.31;1695367;84;21481;-55
2021/07/28 01:03:10;;;;;;;32.42;14.00;;;;;;;18.87;87.58;94676.78;1694288;84;20962;-55
2021/07/28 01:05:37;;;;;;;34.88;18.27;;;;;;;18.82;87.52;94671.95;1695034;84;21160;-55
2021/07/28 01:08:05;;;;;;;35.68;15.35;;;;;;;18.81;87.61;94664.11;1694891;84;20997;-55
2021/07/28 01:10:34;;;;;;;37.33;17.82;;;;;;;18.79;87.78;94668.03;1694591;84;21547;-55
2021/07/28 01:13:03;;;;;;;37.75;15.43;;;;;;;18.74;88.03;94675.11;1695264;84;21068;-56
2021/07/28 01:15:40;;;;;;;31.55;16.05;;;;;;;18.73;88.20;94670.80;1694473;84;20954;-55
2021/07/28 01:18:07;;;;;;;31.40;14.77;;;;;;;18.71;88.28;94680.91;1695045;84;21596;-54
2021/07/28 01:20:39;;;;;;;;;;;;;;;18.70;88.22;94669.02;1696742;84;22195;-54
2021/07/28 01:23:20;;;;;;;33.65;14.03;;;;;;;18.68;88.22;94668.73;1694346;84;20163;-56
2021/07/28 01:25:47;;;;;;;26.12;14.20;;;;;;;18.65;88.08;94668.34;1694390;84;21021;-55
2021/07/28 01:28:15;;;;;;;28.95;14.30;;;;;;;18.64;88.22;94680.01;1694874;84;21485;-55
2021/07/28 01:30:43;;;;;;;37.20;14.65;;;;;;;18.62;88.21;94678.36;1694141;84;21090;-56
2021/07/28 01:33:10;;;;;;;30.72;14.13;;;;;;;18.59;88.13;94668.19;1693849;84;20946;-56
2021/07/28 01:35:38;;;;;;;23.83;11.88;;;;;;;18.59;88.30;94681.50;1693912;84;21006;-55
2021/07/28 01:38:07;;;;;;;30.85;13.22;;;;;;;18.57;87.89;94671.48;1694809;84;21541;-55
2021/07/28 01:40:39;;;;;;;32.88;15.08;;;;;;;18.53;88.27;94686.30;1695378;84;21012;-55
2021/07/28 01:43:18;;;;;;;33.30;14.13;;;;;;;18.47;88.43;94681.95;1695083;84;21147;-55
2021/07/28 01:45:42;;;;;;;31.87;14.43;;;;;;;18.37;88.47;94666.70;1676039;84;21549;-55
2021/07/28 01:48:10;;;;;;;35.83;13.53;;;;;;;18.27;88.78;94678.67;1694408;84;21513;-55
2021/07/28 01:50:36;;;;;;;26.70;14.00;;;;;;;18.23;88.86;94669.77;1694023;84;20981;-56
2021/07/28 01:53:05;;;;;;;29.07;14.87;;;;;;;18.20;89.09;94673.55;1694338;84;21409;-55
2021/07/28 01:55:32;;;;;;;33.88;14.20;;;;;;;18.18;89.19;94672.52;1695679;84;21144;-55
2021/07/28 01:57:59;;;;;;;28.15;14.28;;;;;;;18.18;89.48;94674.55;1694203;84;20986;-55
2021/07/28 02:00:27;;;;;;;37.23;13.75;;;;;;;18.18;89.48;94675.95;1695573;84;21076;-55
2021/07/28 02:03:02;;;;;;;28.25;13.53;;;;;;;18.20;89.48;94677.73;1695624;84;20996;-55
2021/07/28 02:05:22;;;;;;;35.25;14.38;;;;;;;18.24;89.65;94680.30;1694513;84;21223;-55
2021/07/28 02:07:49;;;;;;;38.00;14.60;;;;;;;18.28;89.53;94680.84;1694584;84;21145;-55
2021/07/28 02:10:17;;;;;;;31.95;13.95;;;;;;;18.30;89.33;94679.06;1695983;84;21387;-55
2021/07/28 02:12:44;;;;;;;31.17;14.13;;;;;;;18.29;89.10;94685.16;1695388;84;21096;-55
2021/07/28 02:15:12;;;;;;;24.05;12.35;;;;;;;18.29;89.30;94676.16;1695537;84;21057;-54
2021/07/28 02:17:38;;;;;;;29.77;13.22;;;;;;;18.29;88.92;94673.37;1695247;84;21441;-56
2021/07/28 02:20:08;;;;;;;32.88;14.78;;;;;;;18.25;88.92;94680.42;1695741;84;21135;-56
2021/07/28 02:22:34;;;;;;;29.85;12.82;;;;;;;18.17;88.82;94676.56;1694990;84;20961;-56
2021/07/28 02:25:01;;;;;;;34.40;13.65;;;;;;;18.09;88.97;94669.17;1695290;84;21028;-55
2021/07/28 02:27:28;;;;;;;31.77;12.70;;;;;;;18.03;89.19;94679.52;1695283;84;21077;-56
2021/07/28 02:29:54;;;;;;;21.57;11.18;;;;;;;18.01;89.56;94684.18;1695751;83;21021;-56
2021/07/28 02:32:22;;;;;;;34.65;13.58;;;;;;;17.95;89.70;94681.22;1695721;84;21804;-56
2021/07/28 02:34:49;;;;;;;30.82;14.68;;;;;;;17.85;89.61;94690.39;1694219;84;21080;-55
2021/07/28 02:37:16;;;;;;;31.82;15.18;;;;;;;17.76;89.91;94688.42;1694630;84;21005;-55
2021/07/28 02:39:42;;;;;;;27.50;14.80;;;;;;;17.70;90.03;94687.63;1694480;84;21557;-55
2021/07/28 02:42:09;;;;;;;24.10;13.75;;;;;;;17.67;90.23;94685.20;1694890;84;21067;-55
2021/07/28 02:44:36;;;;;;;31.07;13.40;;;;;;;17.66;90.40;94692.66;1695150;83;21120;-56
2021/07/28 02:47:03;;;;;;;27.77;13.40;;;;;;;17.69;90.54;94691.05;1695096;84;21501;-55
2021/07/28 02:49:29;;;;;;;25.57;13.28;;;;;;;17.73;90.61;94689.42;1694094;84;20957;-55
2021/07/28 02:51:56;;;;;;;27.22;14.23;;;;;;;17.79;90.66;94688.85;1695034;84;21022;-55
2021/07/28 02:54:23;;;;;;;33.90;15.40;;;;;;;17.79;90.42;94681.89;1695489;84;21097;-56
2021/07/28 02:56:52;;;;;;;28.87;14.25;;;;;;;17.75;90.35;94685.51;1694676;83;21142;-55
2021/07/28 02:59:20;;;;;;;28.10;12.70;;;;;;;17.75;90.52;94677.94;1694311;83;21036;-56
2021/07/28 03:01:49;;;;;;;28.83;14.00;;;;;;;17.79;90.76;94687.45;1695035;84;21060;-55
2021/07/28 03:04:21;;;;;;;28.70;15.15;;;;;;;17.86;90.72;94682.81;1694078;84;21045;-55
2021/07/28 03:06:48;;;;;;;31.85;14.03;;;;;;;17.91;90.64;94684.87;1694221;84;21465;-54
2021/07/28 03:09:14;;;;;;;31.20;13.28;;;;;;;17.93;90.19;94678.95;1694173;84;21176;-56
2021/07/28 03:11:41;;;;;;;29.70;14.90;;;;;;;17.97;90.09;94685.05;1693939;84;20946;-55
2021/07/28 03:14:08;;;;;;;36.75;16.35;;;;;;;18.03;90.02;94684.44;1694990;84;21052;-55
2021/07/28 03:16:34;;;;;;;31.60;16.10;;;;;;;18.08;89.70;94680.17;1694927;84;21100;-55
2021/07/28 03:19:01;;;;;;;35.70;13.85;;;;;;;18.05;89.53;94685.35;1695525;84;21044;-56
2021/07/28 03:21:28;;;;;;;35.43;14.25;;;;;;;18.01;89.57;94684.18;1695520;84;21144;-56
2021/07/28 03:23:54;;;;;;;51.45;14.83;;;;;;;17.99;89.54;94684.56;1694061;84;21009;-56
2021/07/28 03:26:21;;;;;;;65.12;16.52;;;;;;;17.96;89.75;94684.91;1694150;84;21425;-56
2021/07/28 03:28:47;;;;;;;26.65;13.55;;;;;;;18.02;90.09;94681.53;1694938;84;21493;-56
2021/07/28 03:31:14;;;;;;;32.28;14.15;;;;;;;18.10;89.96;94671.47;1695296;84;21500;-56
2021/07/28 03:33:41;;;;;;;33.20;13.40;;;;;;;18.14;89.74;94683.13;1694983;84;21189;-55
2021/07/28 03:36:08;;;;;;;37.00;14.98;;;;;;;18.18;89.39;94680.13;1695841;84;20994;-56
2021/07/28 03:38:35;;;;;;;35.98;13.45;;;;;;;18.16;89.39;94679.22;1694303;84;21021;-57
2021/07/28 03:41:01;;;;;;;43.10;14.75;;;;;;;18.18;89.24;94688.61;1694039;83;20958;-56
2021/07/28 03:43:30;;;;;;;49.80;14.85;;;;;;;18.19;89.13;94687.34;1695346;84;21410;-55
2021/07/28 03:45:58;;;;;;;31.30;14.60;;;;;;;18.18;89.13;94684.44;1695806;84;21114;-76
2021/07/28 03:48:30;;;;;;;51.77;15.60;;;;;;;18.20;89.16;94693.66;1694800;84;21049;-67
2021/07/28 03:50:54;;;;;;;41.95;14.00;;;;;;;18.21;89.29;94693.19;1694674;84;21057;-63
2021/07/28 03:53:21;;;;;;;42.30;14.20;;;;;;;18.24;89.05;94693.58;1694716;84;21443;-59
2021/07/28 03:55:47;;;;;;;48.30;13.53;;;;;;;18.25;88.81;94699.27;1694339;84;21021;-58
2021/07/28 03:58:14;;;;;;;47.73;14.47;;;;;;;18.25;88.80;94699.27;1695814;84;21158;-62
2021/07/28 04:00:43;;;;;;;50.30;15.60;;;;;;;18.23;88.93;94692.05;1694571;84;20986;-58
2021/07/28 04:03:10;;;;;;;53.10;16.95;;;;;;;18.28;89.09;94696.91;1694976;84;21020;-56
2021/07/28 04:05:37;;;;;;;64.17;14.33;;;;;;;18.36;89.01;94692.41;1695002;83;20977;-54
2021/07/28 04:08:05;;;;;;;52.00;17.90;;;;;;;18.46;88.69;94700.68;1694556;84;21564;-56
2021/07/28 04:10:33;;;;;;;44.83;17.60;;;;;;;18.54;88.60;94698.97;1695079;84;21169;-55
2021/07/28 04:12:59;;;;;;;37.15;15.43;;;;;;;18.65;88.47;94692.68;1694527;84;20957;-54
2021/07/28 04:15:27;;;;;;;49.27;15.40;;;;;;;18.72;88.20;94695.75;1694866;84;20945;-55
2021/07/28 04:17:54;;;;;;;50.00;17.65;;;;;;;18.83;88.08;94698.56;1695053;84;21470;-55
2021/07/28 04:20:21;;;;;;;41.35;15.20;;;;;;;18.95;88.09;94688.20;1694485;84;21426;-56
2021/07/28 04:22:47;;;;;;;47.00;15.48;;;;;;;19.08;87.80;94701.83;1695413;84;21811;-55
2021/07/28 04:25:14;;;;;;;45.00;14.93;;;;;;;19.17;87.04;94696.69;1695092;84;20985;-55
2021/07/28 04:27:41;;;;;;;41.30;14.87;;;;;;;19.23;86.85;94691.88;1694381;84;20941;-54
2021/07/28 04:30:10;;;;;;;48.17;15.68;;;;;;;19.29;86.41;94690.63;1693898;84;20978;-53
2021/07/28 04:32:36;;;;;;;34.35;14.40;;;;;;;19.37;85.93;94687.45;1689768;84;21065;-55
2021/07/28 04:35:05;;;;;;;37.48;14.65;;;;;;;19.43;85.80;94688.24;1693957;84;21993;-56
2021/07/28 04:37:31;;;;;;;32.45;14.50;;;;;;;19.53;85.76;94693.69;1694330;84;21073;-55
2021/07/28 04:40:01;;;;;;;34.38;15.72;;;;;;;19.64;85.35;94690.92;1694071;84;20969;-55
2021/07/28 04:42:28;;;;;;;51.53;14.28;;;;;;;19.71;85.12;94687.61;1694469;84;21061;-54
2021/07/28 04:44:55;;;;;;;29.92;13.50;;;;;;;19.79;84.83;94688.64;1695253;84;21588;-54
2021/07/28 04:47:22;;;;;;;31.48;13.08;;;;;;;19.88;84.42;94693.95;1694107;84;21206;-54
2021/07/28 04:49:48;;;;;;;30.82;12.25;;;;;;;19.94;83.90;94689.77;1693855;84;20954;-56
2021/07/28 04:52:15;;;;;;;34.55;13.22;;;;;;;19.94;83.43;94696.10;1695098;84;20958;-54
2021/07/28 04:54:42;;;;;;;27.20;12.70;;;;;;;19.94;83.36;94681.39;1695384;84;20974;-55
2021/07/28 04:57:08;;;;;;;35.75;15.90;;;;;;;19.95;83.19;94683.66;1695164;84;21098;-54
2021/07/28 04:59:35;;;;;;;41.33;13.58;;;;;;;19.96;83.12;94682.39;1694603;84;21140;-55
2021/07/28 05:02:04;;;;;;;25.50;12.13;;;;;;;19.98;83.12;94679.88;1694055;84;21041;-54
2021/07/28 05:04:32;;;;;;;26.97;12.88;;;;;;;20.01;82.94;94680.25;1694796;84;21044;-54
2021/07/28 05:07:00;;;;;;;29.25;12.20;;;;;;;20.03;82.90;94675.56;1666086;84;38481;-53
2021/07/28 05:09:26;;;;;;;32.93;12.45;;;;;;;20.07;82.92;94671.24;1694149;84;21049;-54
2021/07/28 05:11:53;;;;;;;37.78;11.93;;;;;;;20.12;82.86;94669.72;1694925;84;21153;-54
2021/07/28 05:14:20;;;;;;;32.53;11.30;;;;;;;20.19;82.74;94667.17;1694374;84;21006;-55
2021/07/28 05:16:46;;;;;;;44.20;13.03;;;;;;;20.26;82.45;94668.81;1694405;84;21009;-56
2021/07/28 05:19:13;;;;;;;28.60;9.83;;;;;;;20.34;82.34;94671.84;1694893;84;21568;-55
2021/07/28 05:21:39;;;;;;;19.75;8.85;;;;;;;20.41;81.82;94664.31;1694394;84;20931;-55
2021/07/28 05:24:06;;;;;;;32.30;12.15;;;;;;;20.49;81.08;94668.09;1695624;84;21130;-56
2021/07/28 05:26:33;;;;;;;34.70;10.72;;;;;;;20.56;80.52;94661.98;1695414;84;21084;-54
2021/07/28 05:29:00;;;;;;;26.42;11.22;;;;;;;20.64;80.11;94664.36;1694153;83;20954;-55
2021/07/28 05:31:28;;;;;;;30.82;10.85;;;;;;;20.71;79.88;94660.39;1694132;83;21490;-56
2021/07/28 05:33:55;;;;;;;33.28;10.58;;;;;;;20.80;79.50;94658.72;1694203;84;20988;-55
2021/07/28 05:36:21;;;;;;;39.35;24.70;;;;;;;20.89;79.15;94659.83;1688270;84;21164;-56
2021/07/28 05:38:48;;;;;;;32.90;12.00;;;;;;;20.97;78.73;94661.45;1611403;87;20986;-56
2021/07/28 05:41:15;;;;;;;28.65;9.30;;;;;;;21.03;78.55;94648.95;1611283;88;21082;-56
2021/07/28 05:43:43;;;;;;;39.85;10.30;;;;;;;21.12;78.21;94646.49;1608844;87;21365;-60
2021/07/28 05:46:10;;;;;;;30.48;10.75;;;;;;;21.28;77.98;94649.83;1633491;86;21131;-59
2021/07/28 05:48:37;;;;;;;36.93;11.93;;;;;;;21.41;77.44;94655.58;1635111;86;21108;-57
2021/07/28 05:51:04;;;;;;;23.27;10.10;;;;;;;21.52;77.02;94644.31;1623954;86;21099;-59
2021/07/28 05:53:32;;;;;;;31.27;10.13;;;;;;;21.66;76.48;94650.22;1616881;86;21491;-60
2021/07/28 05:56:01;;;;;;;24.77;9.40;;;;;;;21.78;76.04;94647.43;1648937;85;21099;-58
2021/07/28 05:58:28;;;;;;;23.62;9.10;;;;;;;21.92;75.77;94640.70;1634809;86;21045;-63
2021/07/28 06:00:57;;;;;;;31.30;11.40;;;;;;;22.03;75.41;94647.73;1651160;85;21543;-57
2021/07/28 06:03:24;;;;;;;34.20;10.20;;;;;;;22.14;75.09;94641.25;1615184;87;21154;-55
2021/07/28 06:05:51;;;;;;;28.17;9.60;;;;;;;22.25;74.64;94637.69;1660622;84;21021;-64
2021/07/28 06:08:18;;;;;;;32.08;9.93;;;;;;;22.35;74.24;94640.27;1663136;84;21122;-58
2021/07/28 06:10:47;;;;;;;24.85;10.38;;;;;;;22.42;73.95;94640.33;1670004;84;21541;-61
2021/07/28 06:13:14;;;;;;;23.98;9.45;;;;;;;22.53;73.62;94643.80;1617022;86;21296;-60
2021/07/28 06:15:40;;;;;;;33.05;10.58;;;;;;;22.68;73.04;94644.11;1636428;86;21115;-62
2021/07/28 06:18:08;;;;;;;30.45;9.38;;;;;;;22.80;72.58;94640.55;1641065;85;21450;-57
2021/07/28 06:20:36;;;;;;;35.25;10.98;;;;;;;22.92;72.28;94635.67;1643288;85;21141;-62
2021/07/28 06:23:03;;;;;;;26.93;9.93;;;;;;;23.10;72.21;94644.73;1644949;85;21015;-64
2021/07/28 06:25:30;;;;;;;29.42;10.32;;;;;;;23.29;71.85;94636.33;1646240;85;21805;-62
2021/07/28 06:27:57;;;;;;;23.05;9.18;;;;;;;23.49;71.43;94642.16;1633344;85;21617;-61
2021/07/28 06:30:24;;;;;;;24.05;9.93;;;;;;;23.73;71.21;94639.88;1645166;85;21106;-59
2021/07/28 06:32:52;;;;;;;43.13;11.83;;;;;;;23.95;71.10;94640.28;1637601;85;21540;-56
2021/07/28 06:35:18;;;;;;;26.97;12.30;;;;;;;24.16;70.78;94634.16;1623620;86;21152;-57
2021/07/28 06:37:45;;;;;;;22.32;10.08;;;;;;;24.34;70.01;94643.16;1607166;87;21039;-58
2021/07/28 06:40:14;;;;;;;19.55;9.45;;;;;;;24.50;69.40;94649.91;1613907;86;21042;-57
2021/07/28 06:42:41;;;;;;;23.22;10.78;;;;;;;24.65;69.07;94646.58;1627147;87;21077;-58
2021/07/28 06:45:09;;;;;;;27.37;11.55;;;;;;;24.68;68.85;94639.86;1629615;86;21130;-57
2021/07/28 06:47:36;;;;;;;21.95;10.05;;;;;;;24.69;68.54;94642.78;1621685;87;21497;-57
2021/07/28 06:50:05;;;;;;;28.67;13.05;;;;;;;24.69;68.86;94642.14;1625293;87;21339;-57
2021/07/28 06:52:32;;;;;;;24.98;10.72;;;;;;;24.69;69.14;94638.56;1619053;87;21102;-61
2021/07/28 06:54:59;;;;;;;20.15;9.88;;;;;;;24.66;69.00;94642.47;1660934;84;21117;-64
2021/07/28 06:57:26;;;;;;;23.77;10.72;;;;;;;24.65;69.40;94636.73;1670099;84;21463;-62
2021/07/28 06:59:55;;;;;;;24.90;10.30;;;;;;;24.65;69.28;94632.50;1680648;84;21045;-58
2021/07/28 07:02:22;;;;;;;22.62;10.13;;;;;;;24.68;69.45;94635.64;1677858;82;21167;-56
2021/07/28 07:04:49;;;;;;;26.20;9.95;;;;;;;24.72;69.38;94632.61;1617722;87;21011;-61
2021/07/28 07:07:16;;;;;;;23.77;9.35;;;;;;;24.83;69.64;94626.00;1650031;84;21173;-56
2021/07/28 07:09:44;;;;;;;24.12;10.38;;;;;;;24.96;69.06;94633.03;1633187;86;21176;-65
2021/07/28 07:12:10;;;;;;;31.25;10.43;;;;;;;25.07;68.38;94635.59;1604296;86;21077;-57
2021/07/28 07:14:37;;;;;;;22.48;9.30;;;;;;;25.21;68.21;94628.03;1618500;85;21274;-56
2021/07/28 07:17:04;;;;;;;29.18;10.03;;;;;;;25.36;67.74;94628.85;1671538;84;21069;-58
2021/07/28 07:19:32;;;;;;;24.90;8.58;;;;;;;25.55;66.96;94623.16;1626234;87;21053;-61
2021/07/28 07:21:59;;;;;;;24.32;7.65;;;;;;;25.76;65.55;94625.98;1662369;84;21097;-57
2021/07/28 07:24:26;;;;;;;22.67;8.10;;;;;;;25.96;62.89;94629.59;1632694;85;21109;-70
2021/07/28 07:26:53;;;;;;;25.92;7.72;;;;;;;26.17;61.33;94628.19;1672942;84;21870;-64
2021/07/28 07:29:20;;;;;;;24.95;8.30;;;;;;;26.33;60.14;94626.33;1673782;84;21089;-59
2021/07/28 07:31:48;;;;;;;17.12;6.95;;;;;;;26.50;58.50;94629.50;1670233;84;21072;-65
2021/07/28 07:34:14;;;;;;;22.58;8.48;;;;;;;26.65;56.47;94621.14;1637103;85;21093;-61
2021/07/28 07:36:41;;;;;;;34.50;9.90;;;;;;;26.79;56.17;94622.55;1649357;84;21116;-67
2021/07/28 07:39:09;;;;;;;28.60;7.92;;;;;;;26.88;55.10;94612.13;1635788;86;21254;-55
2021/07/28 07:41:37;;;;;;;18.95;6.40;;;;;;;26.99;54.27;94613.23;1610354;87;21034;-57
2021/07/28 07:44:05;;;;;;;19.87;7.10;;;;;;;27.12;53.95;94608.91;1631642;85;21109;-58
2021/07/28 07:46:32;;;;;;;22.90;6.95;;;;;;;27.25;53.29;94604.52;1645777;85;21014;-70
2021/07/28 07:49:00;;;;;;;36.65;7.80;;;;;;;27.38;51.43;94603.64;1614473;85;21483;-58
2021/07/28 07:51:28;;;;;;;24.92;6.03;;;;;;;27.52;50.30;94605.75;1618350;85;21233;-61
2021/07/28 07:53:56;;;;;;;24.27;7.05;;;;;;;27.61;49.67;94602.36;1628111;86;21136;-59
2021/07/28 07:56:23;;;;;;;28.07;7.00;;;;;;;27.67;48.88;94602.96;1614981;85;21081;-59
2021/07/28 07:58:52;;;;;;;16.40;5.22;;;;;;;27.71;46.91;94611.05;1647668;85;21108;-61
2021/07/28 08:01:18;;;;;;;13.75;4.97;;;;;;;27.75;46.18;94607.98;1622004;85;21059;-62
2021/07/28 08:03:45;;;;;;;20.25;5.10;;;;;;;27.77;45.22;94611.68;1638603;85;21150;-70
2021/07/28 08:06:12;;;;;;;29.07;6.53;;;;;;;27.79;45.50;94597.73;1652778;85;21232;-58
2021/07/28 08:08:40;;;;;;;25.52;6.92;;;;;;;27.86;44.84;94602.63;1654601;85;21069;-60
2021/07/28 08:11:13;;;;;;;33.00;6.35;;;;;;;27.96;43.77;94600.09;1629304;87;21105;-58
2021/07/28 08:13:41;;;;;;;23.35;6.30;;;;;;;28.08;43.40;94592.11;1613255;87;21020;-65
2021/07/28 08:16:18;;;;;;;23.12;6.08;;;;;;;28.24;43.76;94591.44;1619659;87;21144;-58
2021/07/28 08:18:46;;;;;;;18.23;5.53;;;;;;;28.39;42.78;94595.70;1614358;87;21146;-63
2021/07/28 08:21:13;;;;;;;26.97;8.10;;;;;;;28.56;42.41;94584.56;1627061;86;21105;-60
2021/07/28 08:23:43;;;;;;;16.27;5.87;;;;;;;28.71;41.95;94583.86;1622071;86;21594;-59
2021/07/28 08:26:13;;;;;;;18.73;4.72;;;;;;;28.85;41.31;94597.89;1641395;85;21217;-62
2021/07/28 08:28:43;;;;;;;30.10;6.47;;;;;;;29.00;40.04;94585.78;1634952;86;21259;-61
2021/07/28 08:31:10;;;;;;;19.98;5.17;;;;;;;29.09;40.57;94585.94;1628218;86;21647;-59
2021/07/28 08:33:37;;;;;;;23.02;5.40;;;;;;;29.19;39.85;94586.86;1656585;84;21053;-63
2021/07/28 08:36:04;;;;;;;22.50;5.35;;;;;;;29.29;39.33;94598.34;1677636;83;21590;-56
2021/07/28 08:38:31;;;;;;;24.15;5.17;;;;;;;29.37;39.65;94589.13;1684177;84;21041;-59
2021/07/28 08:41:03;;;;;;;44.90;6.72;;;;;;;29.45;39.37;94589.18;1661918;84;21161;-61
2021/07/28 08:43:33;;;;;;;29.65;6.62;;;;;;;29.54;39.52;94586.43;1659974;84;21080;-59
2021/07/28 08:46:04;;;;;;;26.75;5.50;;;;;;;29.61;39.24;94584.20;1666979;84;20907;-63
2021/07/28 08:48:31;;;;;;;23.95;6.15;;;;;;;29.67;39.30;94586.91;1671238;84;21312;-64
2021/07/28 08:50:59;;;;;;;21.02;6.90;;;;;;;29.72;38.74;94577.42;1649641;84;21540;-58
2021/07/28 08:53:26;;;;;;;14.93;4.67;;;;;;;29.77;39.30;94577.11;1664357;84;21157;-59
2021/07/28 08:55:59;;;;;;;24.20;6.15;;;;;;;29.82;39.27;94567.61;1661654;84;21061;-58
2021/07/28 08:58:27;;;;;;;18.12;5.28;;;;;;;29.89;39.58;94576.08;1656316;84;21043;-64
2021/07/28 09:00:54;;;;;;;43.48;7.30;;;;;;;29.98;38.94;94562.01;1679201;84;21064;-60
2021/07/28 09:03:20;;;;;;;32.40;7.17;;;;;;;30.08;39.62;94563.57;1670604;83;21351;-62
2021/07/28 09:05:50;;;;;;;23.57;6.60;;;;;;;30.16;37.90;94564.28;1672490;84;21133;-59
2021/07/28 09:08:28;;;;;;;16.35;5.67;;;;;;;30.20;38.43;94558.28;1678530;84;21096;-60
2021/07/28 09:11:06;;;;;;;22.93;5.90;;;;;;;30.28;38.25;94573.84;1632545;85;21192;-58
2021/07/28 09:13:38;;;;;;;14.30;5.85;;;;;;;30.34;38.23;94562.30;1631452;85;21140;-56
2021/07/28 09:16:09;;;;;;;17.70;5.13;;;;;;;30.42;37.90;94562.23;1638121;85;21035;-57
2021/07/28 09:18:41;;;;;;;;;;;;;;;30.44;37.16;94558.91;1643177;85;21185;-58
2021/07/28 09:21:27;;;;;;;19.67;5.08;;;;;;;30.45;37.84;94556.16;1628294;85;20200;-58
2021/07/28 09:24:10;;;;;;;28.38;15.75;;;;;;;30.47;37.87;94562.00;1644509;85;22192;-64
2021/07/28 09:26:47;;;;;;;;;;;;;;;30.55;38.15;94559.09;1639839;84;21086;-59
2021/07/28 09:29:20;;;;;;;22.82;6.95;;;;;;;30.61;37.80;94553.29;1647029;85;20364;-61
2021/07/28 09:31:51;;;;;;;27.80;5.58;;;;;;;30.70;38.14;94557.56;1669379;84;21254;-59
2021/07/28 09:34:24;;;;;;;20.57;6.95;;;;;;;30.77;37.95;94557.48;1671807;84;21053;-63
2021/07/28 09:36:59;;;;;;;22.75;5.67;;;;;;;30.83;37.62;94557.97;1624075;86;21158;-57
2021/07/28 09:39:30;;;;;;;22.40;5.62;;;;;;;30.94;36.76;94555.30;1623593;87;21144;-63
2021/07/28 09:42:00;;;;;;;23.47;5.97;;;;;;;30.98;35.69;94550.70;1628702;86;20967;-61
2021/07/28 09:44:32;;;;;;;18.10;5.37;;;;;;;31.00;36.52;94556.55;1628448;86;21149;-62
2021/07/28 09:47:20;;;;;;;21.95;6.45;;;;;;;31.02;36.26;94556.72;1622813;86;21017;-59
2021/07/28 09:49:50;;;;;;;16.48;5.47;;;;;;;31.07;35.17;94557.13;1645047;85;21069;-60
2021/07/28 09:52:33;;;;;;;19.33;5.70;;;;;;;31.09;35.81;94548.02;1641193;86;21085;-60
2021/07/28 09:54:59;;;;;;;19.30;6.03;;;;;;;31.15;36.18;94553.56;1642126;86;21119;-59
2021/07/28 09:57:27;;;;;;;20.70;7.03;;;;;;;31.24;37.17;94551.45;1624170;86;21162;-63
2021/07/28 09:59:57;;;;;;;14.80;5.95;;;;;;;31.29;35.21;94557.56;1651980;85;21533;-57
2021/07/28 10:02:24;;;;;;;22.45;5.40;;;;;;;31.32;36.04;94539.32;1627923;86;21070;-58
2021/07/28 10:04:53;;;;;;;18.37;5.17;;;;;;;31.41;36.06;94535.77;1630464;85;21606;-61
2021/07/28 10:07:21;;;;;;;20.40;5.83;;;;;;;31.46;34.94;94546.16;1628706;85;21684;-61
2021/07/28 10:10:04;;;;;;;26.73;6.58;;;;;;;31.49;34.72;94542.13;1618757;85;21127;-62
2021/07/28 10:12:34;;;;;;;20.08;5.72;;;;;;;31.53;34.92;94533.91;1647599;86;21850;-62
2021/07/28 10:15:07;;;;;;;15.55;5.35;;;;;;;31.59;35.18;94540.77;1648943;85;26281;-61
2021/07/28 10:17:41;;;;;;;19.50;6.87;;;;;;;31.68;35.89;94536.58;1639366;84;21102;-58
2021/07/28 10:20:12;;;;;;;17.57;5.70;;;;;;;31.75;34.69;94537.13;1626368;87;21157;-61
2021/07/28 10:22:42;;;;;;;25.43;6.00;;;;;;;31.85;34.92;94526.55;1611110;87;21056;-58
2021/07/28 10:25:14;;;;;;;18.77;5.60;;;;;;;31.98;34.61;94528.98;1618176;87;21049;-64
2021/07/28 10:27:44;;;;;;;18.73;5.03;;;;;;;32.13;34.35;94525.89;1611938;87;21054;-60
2021/07/28 10:30:16;;;;;;;;;;;;;;;32.29;33.76;94527.17;1623804;87;21939;-59
2021/07/28 10:32:44;;;;;;;16.93;5.55;;;;;;;32.45;33.09;94532.00;1612909;87;20245;-61
2021/07/28 10:35:23;;;;;;;27.25;6.28;;;;;;;32.60;32.73;94516.75;1607848;87;21149;-58
2021/07/28 10:38:01;;;;;;;26.48;5.95;;;;;;;32.69;32.66;94518.88;1625888;87;21121;-59
2021/07/28 10:40:32;;;;;;;14.73;5.28;;;;;;;32.79;32.71;94512.52;1621982;87;21066;-60
2021/07/28 10:43:01;;;;;;;15.13;5.33;;;;;;;32.87;31.55;94515.30;1625698;87;21144;-60
2021/07/28 10:45:56;;;;;;;20.68;5.70;;;;;;;32.95;31.52;94511.62;1610720;87;21100;-62
2021/07/28 10:48:50;;;;;;;16.00;5.28;;;;;;;33.04;30.61;94510.12;1623619;87;21170;-59
2021/07/28 10:51:49;;;;;;;20.05;5.03;;;;;;;33.14;32.11;94503.74;1627050;87;21118;-61
2021/07/28 10:54:17;;;;;;;15.65;4.85;;;;;;;33.30;31.06;94497.83;1612293;87;21076;-60
2021/07/28 10:57:07;;;;;;;19.98;5.03;;;;;;;33.49;31.06;94492.08;1618188;87;21138;-63
2021/07/28 10:59:41;;;;;;;18.60;5.08;;;;;;;33.60;30.31;94504.27;1613200;87;21029;-58
2021/07/28 11:02:10;;;;;;;15.23;5.33;;;;;;;33.41;30.33;94496.53;1621808;87;21073;-58
2021/07/28 11:04:37;;;;;;;16.70;5.90;;;;;;;33.65;30.25;94501.77;1613930;87;21493;-62
2021/07/28 11:07:04;;;;;;;16.27;5.40;;;;;;;33.87;29.72;94501.98;1617385;87;21113;-61
2021/07/28 11:09:31;;;;;;;13.62;5.10;;;;;;;34.03;29.37;94502.42;1615251;87;21071;-60
2021/07/28 11:11:59;;;;;;;14.53;4.50;;;;;;;34.11;29.22;94505.16;1630432;85;21116;-62
2021/07/28 11:14:28;;;;;;;18.15;5.33;;;;;;;34.16;29.17;94504.08;1643953;85;21036;-60
2021/07/28 11:16:55;;;;;;;13.93;4.78;;;;;;;34.16;29.10;94506.94;1649973;86;21041;-63
2021/07/28 11:19:22;;;;;;;23.15;5.12;;;;;;;34.27;29.00;94505.56;1624462;85;22435;-57
2021/07/28 11:21:49;;;;;;;28.87;5.65;;;;;;;34.51;30.25;94499.41;1674379;84;21021;-59
2021/07/28 11:24:17;;;;;;;19.32;5.55;;;;;;;34.94;28.52;94493.80;1600293;86;21110;-59
2021/07/28 11:26:47;;;;;;;18.65;4.87;;;;;;;35.27;27.73;94491.70;1642125;86;22351;-62
2021/07/28 11:29:20;;;;;;;17.10;5.30;;;;;;;35.48;27.70;94491.67;1627529;87;21097;-62
2021/07/28 11:31:48;;;;;;;20.57;5.72;;;;;;;35.71;27.07;94486.02;1613628;86;21172;-64